sensor_id;sensor_type;location;lat;lon;timestamp;temperature;humidity
21090;DHT22;10703;51.020;6.128;2023-03-29T00:02:00;5.70;99.90
21090;DHT22;10703;51.020;6.128;2023-03-29T00:04:27;5.70;99.90
21090;DHT22;10703;51.020;6.128;2023-03-29T00:06:54;5.70;99.90
21090;DHT22;10703;51.020;6.128;2023-03-29T00:09:21;5.80;99.90
21090;DHT22;10703;51.020;6.128;2023-03-29T00:11:48;5.80;99.90
21090;DHT22;10703;51.020;6.128;2023-03-29T00:14:15;5.80;99.90
21090;DHT22;10703;51.020;6.128;2023-03-29T00:16:41;5.90;99.90
21090;DHT22;10703;51.020;6.128;2023-03-29T00:19:10;5.80;99.90
21090;DHT22;10703;51.020;6.128;2023-03-29T00:21:36;5.80;99.90
21090;DHT22;10703;51.020;6.128;2023-03-29T00:24:03;5.80;99.90
21090;DHT22;10703;51.020;6.128;2023-03-29T00:26:30;5.90;99.90
21090;DHT22;10703;51.020;6.128;2023-03-29T00:28:56;5.90;99.90
21090;DHT22;10703;51.020;6.128;2023-03-29T00:31:23;5.90;99.90
21090;DHT22;10703;51.020;6.128;2023-03-29T00:33:49;5.90;99.90
21090;DHT22;10703;51.020;6.128;2023-03-29T00:36:16;5.90;99.90
21090;DHT22;10703;51.020;6.128;2023-03-29T00:38:43;5.80;99.90
21090;DHT22;10703;51.020;6.128;2023-03-29T00:41:10;5.90;99.90
21090;DHT22;10703;51.020;6.128;2023-03-29T00:43:57;5.80;99.90
21090;DHT22;10703;51.020;6.128;2023-03-29T00:46:25;5.90;99.90
21090;DHT22;10703;51.020;6.128;2023-03-29T00:48:54;5.90;99.90
21090;DHT22;10703;51.020;6.128;2023-03-29T00:51:25;6.00;99.90
21090;DHT22;10703;51.020;6.128;2023-03-29T00:53:57;6.00;99.90
21090;DHT22;10703;51.020;6.128;2023-03-29T00:56:28;6.00;99.90
21090;DHT22;10703;51.020;6.128;2023-03-29T00:59:05;6.00;99.90
21090;DHT22;10703;51.020;6.128;2023-03-29T01:01:45;6.00;99.90
21090;DHT22;10703;51.020;6.128;2023-03-29T01:04:18;6.00;99.90
21090;DHT22;10703;51.020;6.128;2023-03-29T01:06:57;6.00;99.90
21090;DHT22;10703;51.020;6.128;2023-03-29T01:09:25;6.10;99.90
21090;DHT22;10703;51.020;6.128;2023-03-29T01:11:57;6.10;99.90
21090;DHT22;10703;51.020;6.128;2023-03-29T01:14:32;6.20;99.90
21090;DHT22;10703;51.020;6.128;2023-03-29T01:17:00;6.30;99.90
21090;DHT22;10703;51.020;6.128;2023-03-29T01:19:31;6.20;99.90
21090;DHT22;10703;51.020;6.128;2023-03-29T01:27:55;6.20;99.90
21090;DHT22;10703;51.020;6.128;2023-03-29T01:30:38;6.10;99.90
21090;DHT22;10703;51.020;6.128;2023-03-29T01:33:54;6.10;99.90
21090;DHT22;10703;51.020;6.128;2023-03-29T01:38:49;6.30;99.90
21090;DHT22;10703;51.020;6.128;2023-03-29T01:41:17;6.50;99.90
21090;DHT22;10703;51.020;6.128;2023-03-29T01:43:50;6.70;99.90
21090;DHT22;10703;51.020;6.128;2023-03-29T01:49:02;7.00;99.90
21090;DHT22;10703;51.020;6.128;2023-03-29T01:53:59;7.30;99.90
21090;DHT22;10703;51.020;6.128;2023-03-29T01:56:28;7.40;99.90
21090;DHT22;10703;51.020;6.128;2023-03-29T01:59:00;7.40;99.90
21090;DHT22;10703;51.020;6.128;2023-03-29T02:01:33;7.50;99.90
21090;DHT22;10703;51.020;6.128;2023-03-29T02:04:07;7.50;99.90
21090;DHT22;10703;51.020;6.128;2023-03-29T02:06:36;7.50;99.90
21090;DHT22;10703;51.020;6.128;2023-03-29T02:09:05;7.60;99.90
21090;DHT22;10703;51.020;6.128;2023-03-29T02:11:33;7.60;99.90
21090;DHT22;10703;51.020;6.128;2023-03-29T02:14:01;7.60;99.90
21090;DHT22;10703;51.020;6.128;2023-03-29T02:16:27;7.60;99.90
21090;DHT22;10703;51.020;6.128;2023-03-29T02:18:55;7.70;99.90
21090;DHT22;10703;51.020;6.128;2023-03-29T02:22:15;7.80;99.90
21090;DHT22;10703;51.020;6.128;2023-03-29T02:24:18;7.80;99.90
21090;DHT22;10703;51.020;6.128;2023-03-29T02:26:46;7.90;99.90
21090;DHT22;10703;51.020;6.128;2023-03-29T02:29:14;7.90;99.90
21090;DHT22;10703;51.020;6.128;2023-03-29T02:31:52;7.90;99.90
21090;DHT22;10703;51.020;6.128;2023-03-29T02:36:55;8.00;99.90
21090;DHT22;10703;51.020;6.128;2023-03-29T02:39:26;8.00;99.90
21090;DHT22;10703;51.020;6.128;2023-03-29T02:41:53;7.90;99.90
21090;DHT22;10703;51.020;6.128;2023-03-29T02:44:24;7.80;99.90
21090;DHT22;10703;51.020;6.128;2023-03-29T02:46:55;7.80;99.90
21090;DHT22;10703;51.020;6.128;2023-03-29T02:49:23;7.80;99.90
21090;DHT22;10703;51.020;6.128;2023-03-29T02:51:52;7.90;99.90
21090;DHT22;10703;51.020;6.128;2023-03-29T02:54:24;7.90;99.90
21090;DHT22;10703;51.020;6.128;2023-03-29T02:57:00;8.10;99.90
21090;DHT22;10703;51.020;6.128;2023-03-29T02:59:28;8.10;99.90
21090;DHT22;10703;51.020;6.128;2023-03-29T03:01:55;8.20;99.90
21090;DHT22;10703;51.020;6.128;2023-03-29T03:04:22;8.20;99.90
21090;DHT22;10703;51.020;6.128;2023-03-29T03:06:49;8.20;99.90
21090;DHT22;10703;51.020;6.128;2023-03-29T03:09:15;8.20;99.90
21090;DHT22;10703;51.020;6.128;2023-03-29T03:11:42;8.20;99.90
21090;DHT22;10703;51.020;6.128;2023-03-29T03:14:09;8.20;99.90
21090;DHT22;10703;51.020;6.128;2023-03-29T03:16:36;8.30;99.90
21090;DHT22;10703;51.020;6.128;2023-03-29T03:19:03;8.20;99.90
21090;DHT22;10703;51.020;6.128;2023-03-29T03:21:29;8.30;99.90
21090;DHT22;10703;51.020;6.128;2023-03-29T03:23:56;8.20;99.90
21090;DHT22;10703;51.020;6.128;2023-03-29T03:26:23;8.30;99.90
21090;DHT22;10703;51.020;6.128;2023-03-29T03:28:56;8.30;99.90
21090;DHT22;10703;51.020;6.128;2023-03-29T03:31:22;8.30;99.90
21090;DHT22;10703;51.020;6.128;2023-03-29T03:33:49;8.30;99.90
21090;DHT22;10703;51.020;6.128;2023-03-29T03:36:15;8.40;99.90
21090;DHT22;10703;51.020;6.128;2023-03-29T03:38:42;8.30;99.90
21090;DHT22;10703;51.020;6.128;2023-03-29T03:41:09;8.10;99.90
21090;DHT22;10703;51.020;6.128;2023-03-29T03:43:35;8.00;99.90
21090;DHT22;10703;51.020;6.128;2023-03-29T03:46:02;7.90;99.90
21090;DHT22;10703;51.020;6.128;2023-03-29T03:48:29;8.10;99.90
21090;DHT22;10703;51.020;6.128;2023-03-29T03:50:56;8.20;99.90
21090;DHT22;10703;51.020;6.128;2023-03-29T03:53:25;8.20;99.90
21090;DHT22;10703;51.020;6.128;2023-03-29T03:55:53;8.30;99.90
21090;DHT22;10703;51.020;6.128;2023-03-29T03:58:21;8.30;99.90
21090;DHT22;10703;51.020;6.128;2023-03-29T04:00:49;8.50;99.90
21090;DHT22;10703;51.020;6.128;2023-03-29T04:03:17;8.40;99.90
21090;DHT22;10703;51.020;6.128;2023-03-29T04:05:45;8.40;99.90
21090;DHT22;10703;51.020;6.128;2023-03-29T04:08:13;8.30;99.90
21090;DHT22;10703;51.020;6.128;2023-03-29T04:10:40;8.30;99.90
21090;DHT22;10703;51.020;6.128;2023-03-29T04:13:07;8.30;99.90
21090;DHT22;10703;51.020;6.128;2023-03-29T04:15:34;8.40;99.90
21090;DHT22;10703;51.020;6.128;2023-03-29T04:18:06;8.30;99.90
21090;DHT22;10703;51.020;6.128;2023-03-29T04:20:34;8.30;99.90
21090;DHT22;10703;51.020;6.128;2023-03-29T04:23:00;8.40;99.90
21090;DHT22;10703;51.020;6.128;2023-03-29T04:25:27;8.40;99.90
21090;DHT22;10703;51.020;6.128;2023-03-29T04:27:54;8.40;99.90
21090;DHT22;10703;51.020;6.128;2023-03-29T04:30:20;8.40;99.90
21090;DHT22;10703;51.020;6.128;2023-03-29T04:32:47;8.50;99.90
21090;DHT22;10703;51.020;6.128;2023-03-29T04:35:14;8.50;99.90
21090;DHT22;10703;51.020;6.128;2023-03-29T04:37:40;8.60;99.90
21090;DHT22;10703;51.020;6.128;2023-03-29T04:40:07;8.60;99.90
21090;DHT22;10703;51.020;6.128;2023-03-29T04:42:35;8.50;99.90
21090;DHT22;10703;51.020;6.128;2023-03-29T04:45:03;8.40;99.90
21090;DHT22;10703;51.020;6.128;2023-03-29T04:47:29;8.40;99.90
21090;DHT22;10703;51.020;6.128;2023-03-29T04:49:56;8.30;99.90
21090;DHT22;10703;51.020;6.128;2023-03-29T04:52:23;8.30;99.90
21090;DHT22;10703;51.020;6.128;2023-03-29T04:54:50;8.40;99.90
21090;DHT22;10703;51.020;6.128;2023-03-29T04:57:16;8.50;99.90
21090;DHT22;10703;51.020;6.128;2023-03-29T04:59:43;8.50;99.90
21090;DHT22;10703;51.020;6.128;2023-03-29T05:02:09;8.50;99.90
21090;DHT22;10703;51.020;6.128;2023-03-29T05:04:36;8.60;99.90
21090;DHT22;10703;51.020;6.128;2023-03-29T05:07:03;8.70;99.90
21090;DHT22;10703;51.020;6.128;2023-03-29T05:09:29;8.60;99.90
21090;DHT22;10703;51.020;6.128;2023-03-29T05:11:58;8.60;99.90
21090;DHT22;10703;51.020;6.128;2023-03-29T05:14:25;8.70;99.90
21090;DHT22;10703;51.020;6.128;2023-03-29T05:16:51;8.80;99.90
21090;DHT22;10703;51.020;6.128;2023-03-29T05:19:18;8.70;99.90
21090;DHT22;10703;51.020;6.128;2023-03-29T05:21:48;8.80;99.90
21090;DHT22;10703;51.020;6.128;2023-03-29T05:24:16;8.80;99.90
21090;DHT22;10703;51.020;6.128;2023-03-29T05:26:43;8.80;99.90
21090;DHT22;10703;51.020;6.128;2023-03-29T05:29:10;8.80;99.90
21090;DHT22;10703;51.020;6.128;2023-03-29T05:31:37;8.80;99.90
21090;DHT22;10703;51.020;6.128;2023-03-29T05:34:05;8.90;99.90
21090;DHT22;10703;51.020;6.128;2023-03-29T05:36:32;8.90;99.90
21090;DHT22;10703;51.020;6.128;2023-03-29T05:38:59;8.90;99.90
21090;DHT22;10703;51.020;6.128;2023-03-29T05:41:27;8.90;99.90
21090;DHT22;10703;51.020;6.128;2023-03-29T05:43:53;8.90;99.90
21090;DHT22;10703;51.020;6.128;2023-03-29T05:46:20;8.90;99.90
21090;DHT22;10703;51.020;6.128;2023-03-29T05:48:47;9.00;99.90
21090;DHT22;10703;51.020;6.128;2023-03-29T05:51:13;9.00;99.90
21090;DHT22;10703;51.020;6.128;2023-03-29T05:53:40;9.00;99.90
21090;DHT22;10703;51.020;6.128;2023-03-29T05:56:07;9.10;99.90
21090;DHT22;10703;51.020;6.128;2023-03-29T05:58:36;9.10;99.90
21090;DHT22;10703;51.020;6.128;2023-03-29T06:01:10;9.20;99.90
21090;DHT22;10703;51.020;6.128;2023-03-29T06:03:37;9.20;99.90
21090;DHT22;10703;51.020;6.128;2023-03-29T06:06:04;9.30;99.90
21090;DHT22;10703;51.020;6.128;2023-03-29T06:08:32;9.30;99.90
21090;DHT22;10703;51.020;6.128;2023-03-29T06:11:02;9.40;99.90
21090;DHT22;10703;51.020;6.128;2023-03-29T06:13:31;9.40;99.90
21090;DHT22;10703;51.020;6.128;2023-03-29T06:16:00;9.50;99.90
21090;DHT22;10703;51.020;6.128;2023-03-29T06:18:26;9.50;99.90
21090;DHT22;10703;51.020;6.128;2023-03-29T06:20:53;9.50;99.90
21090;DHT22;10703;51.020;6.128;2023-03-29T06:23:20;9.50;99.90
21090;DHT22;10703;51.020;6.128;2023-03-29T06:25:47;9.50;99.90
21090;DHT22;10703;51.020;6.128;2023-03-29T06:28:17;9.30;99.90
21090;DHT22;10703;51.020;6.128;2023-03-29T06:30:44;9.20;99.90
21090;DHT22;10703;51.020;6.128;2023-03-29T06:33:14;9.20;99.90
21090;DHT22;10703;51.020;6.128;2023-03-29T06:35:44;9.20;99.90
21090;DHT22;10703;51.020;6.128;2023-03-29T06:38:11;9.20;99.90
21090;DHT22;10703;51.020;6.128;2023-03-29T06:40:38;9.20;99.90
21090;DHT22;10703;51.020;6.128;2023-03-29T06:43:05;9.30;99.90
21090;DHT22;10703;51.020;6.128;2023-03-29T06:45:34;9.50;99.90
21090;DHT22;10703;51.020;6.128;2023-03-29T06:48:02;9.70;99.90
21090;DHT22;10703;51.020;6.128;2023-03-29T06:50:30;9.80;99.90
21090;DHT22;10703;51.020;6.128;2023-03-29T06:52:57;10.00;99.90
21090;DHT22;10703;51.020;6.128;2023-03-29T06:55:24;10.20;99.90
21090;DHT22;10703;51.020;6.128;2023-03-29T06:57:53;10.30;99.90
21090;DHT22;10703;51.020;6.128;2023-03-29T07:00:20;10.60;99.90
21090;DHT22;10703;51.020;6.128;2023-03-29T07:02:54;10.70;99.90
21090;DHT22;10703;51.020;6.128;2023-03-29T07:05:22;10.70;99.90
21090;DHT22;10703;51.020;6.128;2023-03-29T07:07:49;10.70;99.90
21090;DHT22;10703;51.020;6.128;2023-03-29T07:10:20;10.80;99.90
21090;DHT22;10703;51.020;6.128;2023-03-29T07:12:51;10.90;99.90
21090;DHT22;10703;51.020;6.128;2023-03-29T07:15:19;11.00;99.90
21090;DHT22;10703;51.020;6.128;2023-03-29T07:17:47;11.00;99.90
21090;DHT22;10703;51.020;6.128;2023-03-29T07:20:15;11.10;99.90
21090;DHT22;10703;51.020;6.128;2023-03-29T07:22:43;11.20;99.90
21090;DHT22;10703;51.020;6.128;2023-03-29T07:25:10;11.30;99.90
21090;DHT22;10703;51.020;6.128;2023-03-29T07:27:39;11.30;99.90
21090;DHT22;10703;51.020;6.128;2023-03-29T07:30:07;11.30;99.90
21090;DHT22;10703;51.020;6.128;2023-03-29T07:32:38;11.30;99.90
21090;DHT22;10703;51.020;6.128;2023-03-29T07:35:07;11.50;99.90
21090;DHT22;10703;51.020;6.128;2023-03-29T07:37:35;11.50;99.90
21090;DHT22;10703;51.020;6.128;2023-03-29T07:40:07;11.40;99.90
21090;DHT22;10703;51.020;6.128;2023-03-29T07:42:37;11.60;99.90
21090;DHT22;10703;51.020;6.128;2023-03-29T07:45:05;11.60;99.90
21090;DHT22;10703;51.020;6.128;2023-03-29T07:47:32;11.70;99.90
21090;DHT22;10703;51.020;6.128;2023-03-29T07:49:59;11.70;99.90
21090;DHT22;10703;51.020;6.128;2023-03-29T07:52:26;11.90;99.90
21090;DHT22;10703;51.020;6.128;2023-03-29T07:54:55;12.10;99.90
21090;DHT22;10703;51.020;6.128;2023-03-29T07:57:23;11.90;99.90
21090;DHT22;10703;51.020;6.128;2023-03-29T07:59:52;11.80;99.90
21090;DHT22;10703;51.020;6.128;2023-03-29T08:02:19;11.80;99.90
21090;DHT22;10703;51.020;6.128;2023-03-29T08:04:46;11.80;99.90
21090;DHT22;10703;51.020;6.128;2023-03-29T08:07:13;11.70;99.90
21090;DHT22;10703;51.020;6.128;2023-03-29T08:09:44;11.80;99.90
21090;DHT22;10703;51.020;6.128;2023-03-29T08:12:11;11.90;99.90
21090;DHT22;10703;51.020;6.128;2023-03-29T08:14:37;11.90;99.90
21090;DHT22;10703;51.020;6.128;2023-03-29T08:17:04;11.90;99.90
21090;DHT22;10703;51.020;6.128;2023-03-29T08:19:31;12.10;99.90
21090;DHT22;10703;51.020;6.128;2023-03-29T08:21:59;12.10;99.90
21090;DHT22;10703;51.020;6.128;2023-03-29T08:24:26;11.90;99.90
21090;DHT22;10703;51.020;6.128;2023-03-29T08:26:52;12.10;99.90
21090;DHT22;10703;51.020;6.128;2023-03-29T08:29:19;12.00;99.90
21090;DHT22;10703;51.020;6.128;2023-03-29T08:31:46;12.00;99.90
21090;DHT22;10703;51.020;6.128;2023-03-29T08:34:13;12.20;99.90
21090;DHT22;10703;51.020;6.128;2023-03-29T08:36:39;12.20;99.90
21090;DHT22;10703;51.020;6.128;2023-03-29T08:39:06;12.00;99.90
21090;DHT22;10703;51.020;6.128;2023-03-29T08:44:19;12.30;99.90
21090;DHT22;10703;51.020;6.128;2023-03-29T08:47:07;12.60;99.90
21090;DHT22;10703;51.020;6.128;2023-03-29T08:49:38;12.80;99.90
21090;DHT22;10703;51.020;6.128;2023-03-29T08:52:37;12.40;99.90
21090;DHT22;10703;51.020;6.128;2023-03-29T08:55:09;12.40;99.90
21090;DHT22;10703;51.020;6.128;2023-03-29T08:57:49;12.40;99.90
21090;DHT22;10703;51.020;6.128;2023-03-29T09:00:23;12.30;99.90
21090;DHT22;10703;51.020;6.128;2023-03-29T09:02:52;12.40;99.90
21090;DHT22;10703;51.020;6.128;2023-03-29T09:05:32;12.20;99.90
21090;DHT22;10703;51.020;6.128;2023-03-29T09:08:00;12.20;99.90
21090;DHT22;10703;51.020;6.128;2023-03-29T09:10:38;12.20;99.90
21090;DHT22;10703;51.020;6.128;2023-03-29T09:15:48;12.40;99.90
21090;DHT22;10703;51.020;6.128;2023-03-29T09:18:28;12.30;99.90
21090;DHT22;10703;51.020;6.128;2023-03-29T09:31:44;12.30;99.90
21090;DHT22;10703;51.020;6.128;2023-03-29T09:34:32;12.40;99.90
21090;DHT22;10703;51.020;6.128;2023-03-29T09:37:11;12.50;99.90
21090;DHT22;10703;51.020;6.128;2023-03-29T09:39:39;12.60;99.90
21090;DHT22;10703;51.020;6.128;2023-03-29T09:42:07;12.60;99.90
21090;DHT22;10703;51.020;6.128;2023-03-29T09:44:46;12.50;99.90
21090;DHT22;10703;51.020;6.128;2023-03-29T09:47:25;12.60;99.90
21090;DHT22;10703;51.020;6.128;2023-03-29T09:49:59;12.70;99.90
21090;DHT22;10703;51.020;6.128;2023-03-29T09:52:26;12.60;99.90
21090;DHT22;10703;51.020;6.128;2023-03-29T09:54:53;12.80;99.90
21090;DHT22;10703;51.020;6.128;2023-03-29T09:57:20;12.80;99.90
21090;DHT22;10703;51.020;6.128;2023-03-29T09:59:48;12.60;99.90
21090;DHT22;10703;51.020;6.128;2023-03-29T10:02:18;12.80;99.90
21090;DHT22;10703;51.020;6.128;2023-03-29T10:04:51;13.00;99.90
21090;DHT22;10703;51.020;6.128;2023-03-29T10:07:20;13.30;99.90
21090;DHT22;10703;51.020;6.128;2023-03-29T10:09:49;13.50;99.90
21090;DHT22;10703;51.020;6.128;2023-03-29T10:12:17;13.60;99.90
21090;DHT22;10703;51.020;6.128;2023-03-29T10:14:47;14.00;99.90
21090;DHT22;10703;51.020;6.128;2023-03-29T10:17:21;13.90;99.90
21090;DHT22;10703;51.020;6.128;2023-03-29T10:19:56;13.80;99.90
21090;DHT22;10703;51.020;6.128;2023-03-29T10:22:32;14.20;99.90
21090;DHT22;10703;51.020;6.128;2023-03-29T10:24:59;14.30;99.90
21090;DHT22;10703;51.020;6.128;2023-03-29T10:27:27;14.60;99.90
21090;DHT22;10703;51.020;6.128;2023-03-29T10:29:55;14.80;99.90
21090;DHT22;10703;51.020;6.128;2023-03-29T10:32:36;15.00;99.90
21090;DHT22;10703;51.020;6.128;2023-03-29T10:35:11;15.30;99.90
21090;DHT22;10703;51.020;6.128;2023-03-29T10:37:41;15.00;99.90
21090;DHT22;10703;51.020;6.128;2023-03-29T10:40:31;15.20;99.90
21090;DHT22;10703;51.020;6.128;2023-03-29T10:42:59;15.20;99.90
21090;DHT22;10703;51.020;6.128;2023-03-29T10:45:29;15.00;99.90
21090;DHT22;10703;51.020;6.128;2023-03-29T10:47:57;15.00;99.90
21090;DHT22;10703;51.020;6.128;2023-03-29T10:50:31;15.10;99.90
21090;DHT22;10703;51.020;6.128;2023-03-29T10:53:00;15.40;99.90
21090;DHT22;10703;51.020;6.128;2023-03-29T10:55:35;15.30;99.90
21090;DHT22;10703;51.020;6.128;2023-03-29T11:01:01;15.10;99.90
21090;DHT22;10703;51.020;6.128;2023-03-29T11:06:42;15.50;99.90
21090;DHT22;10703;51.020;6.128;2023-03-29T11:11:59;15.10;99.90
21090;DHT22;10703;51.020;6.128;2023-03-29T11:20:29;15.10;99.90
21090;DHT22;10703;51.020;6.128;2023-03-29T11:25:44;15.70;99.90
21090;DHT22;10703;51.020;6.128;2023-03-29T11:28:37;16.30;99.90
21090;DHT22;10703;51.020;6.128;2023-03-29T11:33:50;16.60;99.90
21090;DHT22;10703;51.020;6.128;2023-03-29T11:36:33;17.00;99.90
21090;DHT22;10703;51.020;6.128;2023-03-29T11:39:08;17.30;99.90
21090;DHT22;10703;51.020;6.128;2023-03-29T11:41:42;17.40;99.90
21090;DHT22;10703;51.020;6.128;2023-03-29T11:44:29;17.10;99.90
21090;DHT22;10703;51.020;6.128;2023-03-29T11:49:44;17.50;99.90
21090;DHT22;10703;51.020;6.128;2023-03-29T11:52:17;17.30;99.90
21090;DHT22;10703;51.020;6.128;2023-03-29T11:54:51;17.60;99.90
21090;DHT22;10703;51.020;6.128;2023-03-29T12:00:03;17.70;99.90
21090;DHT22;10703;51.020;6.128;2023-03-29T12:02:49;17.60;99.90
21090;DHT22;10703;51.020;6.128;2023-03-29T12:11:09;18.90;99.90
21090;DHT22;10703;51.020;6.128;2023-03-29T12:13:45;18.70;99.90
21090;DHT22;10703;51.020;6.128;2023-03-29T12:16:36;18.30;99.90
21090;DHT22;10703;51.020;6.128;2023-03-29T12:19:14;18.00;99.90
21090;DHT22;10703;51.020;6.128;2023-03-29T12:21:44;18.60;99.90
21090;DHT22;10703;51.020;6.128;2023-03-29T12:24:12;17.60;99.90
21090;DHT22;10703;51.020;6.128;2023-03-29T12:32:06;17.50;99.90
21090;DHT22;10703;51.020;6.128;2023-03-29T12:40:27;16.50;99.90
21090;DHT22;10703;51.020;6.128;2023-03-29T12:43:06;16.40;99.90
21090;DHT22;10703;51.020;6.128;2023-03-29T12:45:45;17.00;99.90
21090;DHT22;10703;51.020;6.128;2023-03-29T12:48:17;16.90;99.90
21090;DHT22;10703;51.020;6.128;2023-03-29T12:51:02;16.80;99.90
21090;DHT22;10703;51.020;6.128;2023-03-29T12:53:41;16.80;99.90
21090;DHT22;10703;51.020;6.128;2023-03-29T12:56:14;16.40;99.90
21090;DHT22;10703;51.020;6.128;2023-03-29T13:06:54;16.20;99.90
21090;DHT22;10703;51.020;6.128;2023-03-29T13:09:55;16.10;99.90
21090;DHT22;10703;51.020;6.128;2023-03-29T13:12:39;16.60;99.90
21090;DHT22;10703;51.020;6.128;2023-03-29T13:15:22;17.20;99.90
21090;DHT22;10703;51.020;6.128;2023-03-29T13:18:17;17.20;99.90
21090;DHT22;10703;51.020;6.128;2023-03-29T13:20:55;17.60;99.90
21090;DHT22;10703;51.020;6.128;2023-03-29T13:23:48;18.10;99.90
21090;DHT22;10703;51.020;6.128;2023-03-29T13:26:20;18.20;99.90
21090;DHT22;10703;51.020;6.128;2023-03-29T13:28:55;18.30;99.90
21090;DHT22;10703;51.020;6.128;2023-03-29T13:34:02;18.80;99.90
21090;DHT22;10703;51.020;6.128;2023-03-29T13:39:34;18.60;99.90
21090;DHT22;10703;51.020;6.128;2023-03-29T13:42:18;18.60;99.90
21090;DHT22;10703;51.020;6.128;2023-03-29T13:44:46;18.30;99.90
21090;DHT22;10703;51.020;6.128;2023-03-29T13:47:35;17.90;99.90
21090;DHT22;10703;51.020;6.128;2023-03-29T13:50:05;17.70;99.90
21090;DHT22;10703;51.020;6.128;2023-03-29T13:52:38;17.50;99.90
21090;DHT22;10703;51.020;6.128;2023-03-29T13:55:18;17.70;99.90
21090;DHT22;10703;51.020;6.128;2023-03-29T13:58:03;17.60;99.90
21090;DHT22;10703;51.020;6.128;2023-03-29T14:00:54;17.60;99.90
21090;DHT22;10703;51.020;6.128;2023-03-29T14:03:23;17.70;99.90
21090;DHT22;10703;51.020;6.128;2023-03-29T14:06:00;18.10;99.90
21090;DHT22;10703;51.020;6.128;2023-03-29T14:08:29;18.50;99.90
21090;DHT22;10703;51.020;6.128;2023-03-29T14:11:01;18.10;99.90
21090;DHT22;10703;51.020;6.128;2023-03-29T14:13:28;18.40;99.90
21090;DHT22;10703;51.020;6.128;2023-03-29T14:16:01;18.30;99.90
21090;DHT22;10703;51.020;6.128;2023-03-29T14:18:36;18.00;99.90
21090;DHT22;10703;51.020;6.128;2023-03-29T14:21:05;17.70;99.90
21090;DHT22;10703;51.020;6.128;2023-03-29T14:23:36;17.50;99.90
21090;DHT22;10703;51.020;6.128;2023-03-29T14:26:06;17.50;99.90
21090;DHT22;10703;51.020;6.128;2023-03-29T14:28:33;17.50;99.90
21090;DHT22;10703;51.020;6.128;2023-03-29T14:31:00;17.50;99.90
21090;DHT22;10703;51.020;6.128;2023-03-29T14:33:29;17.30;99.90
21090;DHT22;10703;51.020;6.128;2023-03-29T14:36:00;17.60;99.90
21090;DHT22;10703;51.020;6.128;2023-03-29T14:38:29;17.40;99.90
21090;DHT22;10703;51.020;6.128;2023-03-29T14:41:00;17.30;99.90
21090;DHT22;10703;51.020;6.128;2023-03-29T14:43:29;17.30;99.90
21090;DHT22;10703;51.020;6.128;2023-03-29T14:45:59;17.30;99.90
21090;DHT22;10703;51.020;6.128;2023-03-29T14:48:29;17.30;99.90
21090;DHT22;10703;51.020;6.128;2023-03-29T14:50:59;17.30;99.90
21090;DHT22;10703;51.020;6.128;2023-03-29T14:53:27;17.30;99.90
21090;DHT22;10703;51.020;6.128;2023-03-29T14:56:00;17.30;99.90
21090;DHT22;10703;51.020;6.128;2023-03-29T14:58:30;17.20;99.90
21090;DHT22;10703;51.020;6.128;2023-03-29T15:01:13;17.10;99.90
21090;DHT22;10703;51.020;6.128;2023-03-29T15:03:54;17.10;99.90
21090;DHT22;10703;51.020;6.128;2023-03-29T15:06:23;17.30;99.90
21090;DHT22;10703;51.020;6.128;2023-03-29T15:08:50;17.40;99.90
21090;DHT22;10703;51.020;6.128;2023-03-29T15:11:31;17.60;99.90
21090;DHT22;10703;51.020;6.128;2023-03-29T15:14:05;17.80;99.90
21090;DHT22;10703;51.020;6.128;2023-03-29T15:16:38;18.00;99.90
21090;DHT22;10703;51.020;6.128;2023-03-29T15:19:09;18.10;99.90
21090;DHT22;10703;51.020;6.128;2023-03-29T15:21:37;18.00;99.90
21090;DHT22;10703;51.020;6.128;2023-03-29T15:24:04;18.40;99.90
21090;DHT22;10703;51.020;6.128;2023-03-29T15:26:36;18.40;99.90
21090;DHT22;10703;51.020;6.128;2023-03-29T15:29:16;18.70;99.90
21090;DHT22;10703;51.020;6.128;2023-03-29T15:31:56;18.70;99.90
21090;DHT22;10703;51.020;6.128;2023-03-29T15:34:31;18.70;99.90
21090;DHT22;10703;51.020;6.128;2023-03-29T15:36:59;18.40;99.90
21090;DHT22;10703;51.020;6.128;2023-03-29T15:39:27;18.30;99.90
21090;DHT22;10703;51.020;6.128;2023-03-29T15:41:55;18.10;99.90
21090;DHT22;10703;51.020;6.128;2023-03-29T15:44:26;18.10;99.90
21090;DHT22;10703;51.020;6.128;2023-03-29T15:46:54;18.00;99.90
21090;DHT22;10703;51.020;6.128;2023-03-29T15:49:23;18.00;99.90
21090;DHT22;10703;51.020;6.128;2023-03-29T15:51:51;18.00;99.90
21090;DHT22;10703;51.020;6.128;2023-03-29T15:54:20;17.90;99.90
21090;DHT22;10703;51.020;6.128;2023-03-29T15:56:50;18.00;99.90
21090;DHT22;10703;51.020;6.128;2023-03-29T15:59:18;18.00;99.90
21090;DHT22;10703;51.020;6.128;2023-03-29T16:01:45;18.00;99.90
21090;DHT22;10703;51.020;6.128;2023-03-29T16:04:18;17.50;99.90
21090;DHT22;10703;51.020;6.128;2023-03-29T16:06:47;17.60;99.90
21090;DHT22;10703;51.020;6.128;2023-03-29T16:09:15;17.60;99.90
21090;DHT22;10703;51.020;6.128;2023-03-29T16:11:42;17.40;99.90
21090;DHT22;10703;51.020;6.128;2023-03-29T16:14:27;17.50;99.90
21090;DHT22;10703;51.020;6.128;2023-03-29T16:16:56;17.50;99.90
21090;DHT22;10703;51.020;6.128;2023-03-29T16:19:28;17.40;99.90
21090;DHT22;10703;51.020;6.128;2023-03-29T16:21:54;17.20;99.90
21090;DHT22;10703;51.020;6.128;2023-03-29T16:24:24;17.10;99.90
21090;DHT22;10703;51.020;6.128;2023-03-29T16:26:51;17.10;99.90
21090;DHT22;10703;51.020;6.128;2023-03-29T16:29:22;17.20;99.90
21090;DHT22;10703;51.020;6.128;2023-03-29T16:31:49;17.00;99.90
21090;DHT22;10703;51.020;6.128;2023-03-29T16:34:16;17.00;99.90
21090;DHT22;10703;51.020;6.128;2023-03-29T16:36:45;16.90;99.90
21090;DHT22;10703;51.020;6.128;2023-03-29T16:39:13;17.00;99.90
21090;DHT22;10703;51.020;6.128;2023-03-29T16:41:41;16.80;99.90
21090;DHT22;10703;51.020;6.128;2023-03-29T16:44:14;16.70;99.90
21090;DHT22;10703;51.020;6.128;2023-03-29T16:46:41;16.70;99.90
21090;DHT22;10703;51.020;6.128;2023-03-29T16:49:11;16.60;99.90
21090;DHT22;10703;51.020;6.128;2023-03-29T16:51:39;16.50;99.90
21090;DHT22;10703;51.020;6.128;2023-03-29T16:54:05;16.50;99.90
21090;DHT22;10703;51.020;6.128;2023-03-29T16:56:32;16.50;99.90
21090;DHT22;10703;51.020;6.128;2023-03-29T16:59:02;16.40;99.90
21090;DHT22;10703;51.020;6.128;2023-03-29T17:01:28;16.40;99.90
21090;DHT22;10703;51.020;6.128;2023-03-29T17:03:55;16.30;99.90
21090;DHT22;10703;51.020;6.128;2023-03-29T17:06:22;16.20;99.90
21090;DHT22;10703;51.020;6.128;2023-03-29T17:08:49;16.20;99.90
21090;DHT22;10703;51.020;6.128;2023-03-29T17:11:16;16.10;99.90
21090;DHT22;10703;51.020;6.128;2023-03-29T17:13:42;16.10;99.90
21090;DHT22;10703;51.020;6.128;2023-03-29T17:16:09;16.00;99.90
21090;DHT22;10703;51.020;6.128;2023-03-29T17:18:36;16.00;99.90
21090;DHT22;10703;51.020;6.128;2023-03-29T17:21:03;16.10;99.90
21090;DHT22;10703;51.020;6.128;2023-03-29T17:23:30;16.00;99.90
21090;DHT22;10703;51.020;6.128;2023-03-29T17:25:56;15.90;99.90
21090;DHT22;10703;51.020;6.128;2023-03-29T17:28:23;15.80;99.90